createdAt,value
2019-05-06T00:00:59.232Z,6.12
2019-05-06T00:01:55.256Z,6.15
2019-05-06T00:02:55.227Z,6.15
2019-05-06T00:03:55.217Z,6.15
2019-05-06T00:04:55.179Z,6.18
2019-05-06T00:05:55.157Z,6.08
2019-05-06T00:06:55.133Z,6.09
2019-05-06T00:07:55.114Z,6.11
2019-05-06T00:08:55.085Z,6.12
2019-05-06T00:09:55.062Z,6.09
2019-05-06T00:10:55.037Z,6.03
2019-05-06T00:11:55.015Z,5.93
2019-05-06T00:12:54.992Z,5.93
2019-05-06T00:13:54.972Z,5.94
2019-05-06T00:14:54.954Z,5.96
2019-05-06T00:15:54.924Z,5.89
2019-05-06T00:16:58.395Z,5.79
2019-05-06T00:17:54.872Z,5.81
2019-05-06T00:18:54.850Z,5.63
2019-05-06T00:19:57.023Z,5.60
2019-05-06T00:20:57.554Z,5.40
2019-05-06T00:21:54.778Z,5.39
2019-05-06T00:22:54.819Z,5.46
2019-05-06T00:23:54.922Z,5.39
2019-05-06T00:24:54.848Z,5.43
2019-05-06T00:25:54.683Z,5.53
2019-05-06T00:26:57.381Z,5.53
2019-05-06T00:27:54.634Z,5.46
2019-05-06T00:28:54.614Z,5.45
2019-05-06T00:29:55.074Z,5.45
2019-05-06T00:31:09.173Z,5.53
2019-05-06T00:31:54.539Z,5.53
2019-05-06T00:32:54.518Z,5.60
2019-05-06T00:33:54.496Z,5.54
2019-05-06T00:34:54.783Z,5.57
2019-05-06T00:35:54.446Z,5.54
2019-05-06T00:36:54.665Z,5.51
2019-05-06T00:37:54.407Z,5.56
2019-05-06T00:38:54.373Z,5.58
2019-05-06T00:39:54.352Z,5.61
2019-05-06T00:40:54.423Z,5.54
2019-05-06T00:41:54.302Z,5.53
2019-05-06T00:42:54.326Z,5.54
2019-05-06T00:43:54.686Z,5.51
2019-05-06T00:44:54.245Z,5.56
2019-05-06T00:45:54.208Z,5.53
2019-05-06T00:46:54.622Z,5.51
2019-05-06T00:47:54.170Z,5.40
2019-05-06T00:48:54.404Z,5.43
2019-05-06T00:49:54.692Z,5.36
2019-05-06T00:50:54.091Z,5.33
2019-05-06T00:51:55.054Z,5.33
2019-05-06T00:52:54.075Z,5.28
2019-05-06T00:53:54.494Z,5.17
2019-05-06T00:54:54.708Z,5.20
2019-05-06T00:55:53.973Z,5.22
2019-05-06T00:56:54.186Z,5.17
2019-05-06T00:57:54.448Z,5.20
2019-05-06T00:58:54.411Z,5.25
2019-05-06T00:59:53.987Z,5.20
2019-05-06T01:00:54.048Z,5.27
2019-05-06T01:01:54.002Z,5.22
2019-05-06T01:02:54.268Z,5.20
2019-05-06T01:03:53.813Z,5.27
2019-05-06T01:04:54.293Z,5.12
2019-05-06T01:05:54.409Z,5.17
2019-05-06T01:06:54.430Z,5.06
2019-05-06T01:07:54.975Z,5.03
2019-05-06T01:08:54.389Z,5.06
2019-05-06T01:09:54.171Z,4.92
2019-05-06T01:10:54.426Z,5.04
2019-05-06T01:11:54.173Z,4.92
2019-05-06T01:12:54.449Z,4.97
2019-05-06T01:13:54.489Z,4.99
2019-05-06T01:14:54.487Z,4.92
2019-05-06T01:15:54.798Z,4.94
2019-05-06T01:16:54.791Z,4.97
2019-05-06T01:17:53.885Z,4.96
2019-05-06T01:18:54.153Z,5.00
2019-05-06T01:19:54.125Z,4.89
2019-05-06T01:20:54.176Z,4.92
2019-05-06T01:21:54.018Z,4.88
2019-05-06T01:22:54.407Z,4.80
2019-05-06T01:23:54.464Z,4.91
2019-05-06T01:24:55.700Z,4.89
2019-05-06T01:25:54.572Z,4.72
2019-05-06T01:26:53.770Z,4.82
2019-05-06T01:27:54.008Z,4.78
2019-05-06T01:28:54.548Z,4.67
2019-05-06T01:29:54.880Z,4.55
2019-05-06T01:30:53.591Z,4.65
2019-05-06T01:31:54.406Z,4.72
2019-05-06T01:32:54.359Z,4.70
2019-05-06T01:33:53.526Z,4.65
2019-05-06T01:34:53.666Z,4.62
2019-05-06T01:35:54.189Z,4.70
2019-05-06T01:36:54.533Z,4.72
2019-05-06T01:37:54.578Z,4.73
2019-05-06T01:38:53.552Z,4.85
2019-05-06T01:39:54.170Z,4.70
2019-05-06T01:40:54.666Z,4.78
2019-05-06T01:41:53.658Z,4.84
2019-05-06T01:42:54.107Z,4.91
2019-05-06T01:43:54.636Z,4.84
2019-05-06T01:44:53.838Z,4.89
2019-05-06T01:45:53.651Z,4.89
2019-05-06T01:46:54.185Z,4.86
2019-05-06T01:47:54.393Z,4.86
2019-05-06T01:48:53.634Z,4.80
2019-05-06T01:49:53.791Z,4.84
2019-05-06T01:50:54.010Z,4.88
2019-05-06T01:51:54.623Z,4.96
2019-05-06T01:52:53.977Z,4.96
2019-05-06T01:53:54.402Z,4.91
2019-05-06T01:54:54.217Z,4.96
2019-05-06T01:55:54.491Z,4.84
2019-05-06T01:56:53.764Z,4.85
2019-05-06T01:57:54.447Z,4.89
2019-05-06T01:58:53.635Z,4.94
2019-05-06T01:59:54.028Z,4.77
2019-05-06T02:00:54.052Z,4.75
2019-05-06T02:01:59.876Z,4.84
2019-05-06T02:02:54.610Z,4.72
2019-05-06T02:03:53.812Z,4.77
2019-05-06T02:04:53.986Z,4.72
2019-05-06T02:05:53.993Z,4.66
2019-05-06T02:06:54.353Z,4.67
2019-05-06T02:07:52.234Z,4.66
2019-05-06T02:08:54.021Z,4.60
2019-05-06T02:09:54.196Z,4.65
2019-05-06T02:10:54.389Z,4.67
2019-05-06T02:11:53.637Z,4.80
2019-05-06T02:12:54.042Z,4.77
2019-05-06T02:13:53.782Z,4.73
2019-05-06T02:14:54.167Z,4.70
2019-05-06T02:15:52.042Z,4.70
2019-05-06T02:16:54.343Z,4.73
2019-05-06T02:17:51.995Z,4.73
2019-05-06T02:18:53.855Z,4.73
2019-05-06T02:19:51.951Z,4.78
2019-05-06T02:20:53.820Z,4.75
2019-05-06T02:21:54.104Z,4.78
2019-05-06T02:22:53.769Z,4.77
2019-05-06T02:23:53.504Z,4.84
2019-05-06T02:24:53.572Z,4.80
2019-05-06T02:25:53.541Z,4.88
2019-05-06T02:26:53.725Z,4.72
2019-05-06T02:27:54.021Z,4.78
2019-05-06T02:28:54.113Z,4.72
2019-05-06T02:29:51.705Z,4.69
2019-05-06T02:30:54.499Z,4.73
2019-05-06T02:31:54.622Z,4.77
2019-05-06T02:32:51.636Z,4.72
2019-05-06T02:33:51.606Z,4.77
2019-05-06T02:34:54.338Z,4.65
2019-05-06T02:35:51.561Z,4.73
2019-05-06T02:36:51.538Z,4.77
2019-05-06T02:37:51.511Z,4.80
2019-05-06T02:38:55.467Z,4.72
2019-05-06T02:39:53.388Z,4.69
2019-05-06T02:40:53.537Z,4.67
2019-05-06T02:41:54.594Z,4.60
2019-05-06T02:42:54.591Z,4.55
2019-05-06T02:43:53.967Z,4.44
2019-05-06T02:44:53.340Z,4.55
2019-05-06T02:45:53.139Z,4.58
2019-05-06T02:46:53.339Z,4.54
2019-05-06T02:47:53.775Z,4.59
2019-05-06T02:48:54.083Z,4.54
2019-05-06T02:49:53.522Z,4.59
2019-05-06T02:50:53.692Z,4.59
2019-05-06T02:51:53.441Z,4.67
2019-05-06T02:52:53.736Z,4.63
2019-05-06T02:53:53.753Z,4.70
2019-05-06T02:54:53.710Z,4.73
2019-05-06T02:55:53.114Z,4.73
2019-05-06T02:56:53.196Z,4.75
2019-05-06T02:57:53.643Z,4.75
2019-05-06T02:58:53.442Z,4.75
2019-05-06T02:59:50.973Z,4.82
2019-05-06T03:00:53.706Z,4.77
2019-05-06T03:01:53.529Z,4.82
2019-05-06T03:02:53.843Z,4.75
2019-05-06T03:03:53.666Z,4.84
2019-05-06T03:04:52.851Z,4.82
2019-05-06T03:05:53.262Z,4.86
2019-05-06T03:06:53.245Z,4.80
2019-05-06T03:07:57.185Z,4.82
2019-05-06T03:08:53.286Z,4.89
2019-05-06T03:09:53.284Z,4.84
2019-05-06T03:10:53.425Z,4.84
2019-05-06T03:11:53.612Z,4.84
2019-05-06T03:12:53.484Z,4.86
2019-05-06T03:13:53.513Z,4.89
2019-05-06T03:14:53.361Z,4.84
2019-05-06T03:15:50.584Z,4.96
2019-05-06T03:16:53.827Z,4.88
2019-05-06T03:17:50.534Z,4.97
2019-05-06T03:18:53.092Z,4.96
2019-05-06T03:19:52.695Z,4.86
2019-05-06T03:20:53.355Z,4.94
2019-05-06T03:21:50.440Z,4.94
2019-05-06T03:22:54.104Z,4.92
2019-05-06T03:23:50.388Z,4.94
2019-05-06T03:24:50.367Z,4.92
2019-05-06T03:25:53.026Z,4.86
2019-05-06T03:26:53.363Z,4.77
2019-05-06T03:27:53.098Z,4.80
2019-05-06T03:28:53.312Z,4.91
2019-05-06T03:29:53.438Z,4.85
2019-05-06T03:30:50.217Z,4.86
2019-05-06T03:31:55.686Z,4.91
2019-05-06T03:33:23.306Z,4.92
2019-05-06T03:34:08.914Z,4.92
2019-05-06T03:35:09.159Z,4.92
2019-05-06T03:36:05.304Z,4.97
2019-05-06T03:36:55.552Z,5.00
2019-05-06T03:37:53.046Z,4.94
2019-05-06T03:38:50.025Z,5.00
2019-05-06T03:39:52.726Z,4.96
2019-05-06T03:40:50.005Z,5.03
2019-05-06T03:41:49.949Z,5.04
2019-05-06T03:42:49.923Z,5.04
2019-05-06T03:43:49.902Z,4.99
2019-05-06T03:44:52.921Z,4.91
2019-05-06T03:45:49.852Z,4.91
2019-05-06T03:46:49.824Z,4.92
2019-05-06T03:47:49.803Z,4.89
2019-05-06T03:48:52.903Z,4.82
2019-05-06T03:49:51.301Z,4.88
2019-05-06T03:50:49.738Z,4.78
2019-05-06T03:51:49.723Z,4.78
2019-05-06T03:52:49.681Z,4.86
2019-05-06T03:53:49.657Z,4.84
2019-05-06T03:54:49.639Z,4.85
2019-05-06T03:55:49.611Z,4.86
2019-05-06T03:56:49.586Z,4.80
2019-05-06T03:57:49.558Z,4.73
2019-05-06T03:58:49.532Z,4.67
2019-05-06T03:59:49.512Z,4.75
2019-05-06T04:00:49.488Z,4.72
2019-05-06T04:01:49.463Z,4.77
2019-05-06T04:02:49.438Z,4.70
2019-05-06T04:03:53.748Z,4.69
2019-05-06T04:04:49.387Z,4.60
2019-05-06T04:05:49.370Z,4.59
2019-05-06T04:06:49.340Z,4.70
2019-05-06T04:07:49.316Z,4.60
2019-05-06T04:08:49.290Z,4.59
2019-05-06T04:09:49.270Z,4.44
2019-05-06T04:10:49.241Z,4.45
2019-05-06T04:11:49.216Z,4.47
2019-05-06T04:12:49.192Z,4.44
2019-05-06T04:13:49.172Z,4.30
2019-05-06T04:14:49.145Z,4.40
2019-05-06T04:15:49.124Z,4.27
2019-05-06T04:16:49.098Z,4.32
2019-05-06T04:17:49.071Z,4.30
2019-05-06T04:18:49.046Z,4.32
2019-05-06T04:19:49.022Z,4.32
2019-05-06T04:20:48.994Z,4.24
2019-05-06T04:21:48.981Z,4.27
2019-05-06T04:22:48.947Z,4.27
2019-05-06T04:23:48.921Z,4.30
2019-05-06T04:24:48.901Z,4.27
2019-05-06T04:25:48.876Z,4.30
2019-05-06T04:26:48.859Z,4.27
2019-05-06T04:27:48.824Z,4.34
2019-05-06T04:28:48.799Z,4.27
2019-05-06T04:29:48.781Z,4.32
2019-05-06T04:30:48.754Z,4.45
2019-05-06T04:31:48.727Z,4.34
2019-05-06T04:32:48.703Z,4.42
2019-05-06T04:34:07.276Z,4.33
2019-05-06T04:34:48.654Z,4.40
2019-05-06T04:35:48.628Z,4.34
2019-05-06T04:36:48.608Z,4.33
2019-05-06T04:37:48.578Z,4.34
2019-05-06T04:38:48.556Z,4.30
2019-05-06T04:39:48.534Z,4.37
2019-05-06T04:40:48.506Z,4.40
2019-05-06T04:41:48.481Z,4.30
2019-05-06T04:42:48.456Z,4.30
2019-05-06T04:43:48.440Z,4.40
2019-05-06T04:44:48.417Z,4.41
2019-05-06T04:45:48.382Z,4.40
2019-05-06T04:46:48.359Z,4.42
2019-05-06T04:47:48.335Z,4.50
2019-05-06T04:48:48.310Z,4.54
2019-05-06T04:49:48.286Z,4.47
2019-05-06T04:50:48.260Z,4.52
2019-05-06T04:51:48.233Z,4.65
2019-05-06T04:52:48.213Z,4.59
2019-05-06T04:53:48.187Z,4.51
2019-05-06T04:54:48.168Z,4.54
2019-05-06T04:55:48.136Z,4.51
2019-05-06T04:56:48.126Z,4.45
2019-05-06T04:57:48.096Z,4.55
2019-05-06T04:58:48.065Z,4.59
2019-05-06T04:59:48.043Z,4.59
2019-05-06T05:00:48.017Z,4.52
2019-05-06T05:01:47.989Z,4.62
2019-05-06T05:02:47.966Z,4.75
2019-05-06T05:03:47.944Z,4.65
2019-05-06T05:04:47.918Z,4.72
2019-05-06T05:05:47.891Z,4.73
2019-05-06T05:06:47.866Z,4.70
2019-05-06T05:07:47.842Z,4.70
2019-05-06T05:08:47.818Z,4.73
2019-05-06T05:09:47.800Z,4.84
2019-05-06T05:10:47.772Z,4.80
2019-05-06T05:11:47.748Z,4.92
2019-05-06T05:12:47.719Z,4.86
2019-05-06T05:13:47.693Z,4.85
2019-05-06T05:14:47.670Z,4.88
2019-05-06T05:15:47.646Z,4.80
2019-05-06T05:16:47.620Z,4.84
2019-05-06T05:17:47.595Z,4.92
2019-05-06T05:18:47.572Z,4.96
2019-05-06T05:19:47.547Z,4.92
2019-05-06T05:20:47.532Z,4.85
2019-05-06T05:21:47.498Z,4.88
2019-05-06T05:22:47.479Z,5.03
2019-05-06T05:23:47.449Z,4.94
2019-05-06T05:24:47.423Z,5.03
2019-05-06T05:25:47.401Z,5.06
2019-05-06T05:26:47.376Z,5.07
2019-05-06T05:27:47.354Z,5.09
2019-05-06T05:28:47.329Z,5.07
2019-05-06T05:29:47.308Z,5.10
2019-05-06T05:30:47.289Z,5.17
2019-05-06T05:31:47.260Z,5.12
2019-05-06T05:32:47.233Z,5.10
2019-05-06T05:33:47.204Z,5.20
2019-05-06T05:34:47.181Z,5.21
2019-05-06T05:35:47.156Z,5.20
2019-05-06T05:36:47.141Z,5.22
2019-05-06T05:37:47.106Z,5.28
2019-05-06T05:38:47.085Z,5.24
2019-05-06T05:39:47.058Z,5.36
2019-05-06T05:40:47.034Z,5.25
2019-05-06T05:41:47.007Z,5.33
2019-05-06T05:42:46.984Z,5.40
2019-05-06T05:43:46.964Z,5.40
2019-05-06T05:44:46.937Z,5.40
2019-05-06T05:45:46.912Z,5.35
2019-05-06T05:46:46.888Z,5.43
2019-05-06T05:47:46.865Z,5.48
2019-05-06T05:48:46.842Z,5.46
2019-05-06T05:49:46.818Z,5.46
2019-05-06T05:50:46.789Z,5.54
2019-05-06T05:51:46.765Z,5.49
2019-05-06T05:52:46.741Z,5.51
2019-05-06T05:53:46.726Z,5.64
2019-05-06T05:54:46.694Z,5.68
2019-05-06T05:55:46.674Z,5.58
2019-05-06T05:56:46.643Z,5.64
2019-05-06T05:57:46.621Z,5.58
2019-05-06T05:58:46.595Z,5.61
2019-05-06T05:59:46.574Z,5.63
2019-05-06T06:00:46.554Z,5.65
2019-05-06T06:01:46.536Z,5.75
2019-05-06T06:02:46.501Z,5.75
2019-05-06T06:03:46.473Z,5.79
2019-05-06T06:04:56.813Z,5.75
2019-05-06T06:05:46.424Z,5.76
2019-05-06T06:06:46.399Z,5.74
2019-05-06T06:07:46.377Z,5.81
2019-05-06T06:08:46.360Z,5.85
2019-05-06T06:09:46.328Z,5.89
2019-05-06T06:10:46.303Z,5.83
2019-05-06T06:11:46.279Z,5.82
2019-05-06T06:12:46.255Z,5.90
2019-05-06T06:13:46.235Z,5.83
2019-05-06T06:14:47.296Z,5.85
2019-05-06T06:15:46.180Z,5.85
2019-05-06T06:16:46.159Z,5.82
2019-05-06T06:17:46.452Z,5.86
2019-05-06T06:18:46.108Z,5.91
2019-05-06T06:19:46.092Z,5.90
2019-05-06T06:20:46.059Z,5.96
2019-05-06T06:21:46.036Z,5.99
2019-05-06T06:22:46.009Z,5.94
2019-05-06T06:23:45.990Z,5.94
2019-05-06T06:24:45.963Z,5.93
2019-05-06T06:25:45.937Z,5.94
2019-05-06T06:26:45.919Z,5.96
2019-05-06T06:27:45.889Z,6.04
2019-05-06T06:28:45.865Z,5.97
2019-05-06T06:29:45.845Z,6.04
2019-05-06T06:30:45.817Z,6.08
2019-05-06T06:31:45.797Z,6.06
2019-05-06T06:32:45.767Z,6.04
2019-05-06T06:33:45.743Z,6.15
2019-05-06T06:34:45.720Z,6.14
2019-05-06T06:35:45.698Z,6.21
2019-05-06T06:36:45.672Z,6.17
2019-05-06T06:37:45.649Z,6.25
2019-05-06T06:38:45.623Z,6.28
2019-05-06T06:39:45.610Z,6.31
2019-05-06T06:40:45.575Z,6.34
2019-05-06T06:41:45.551Z,6.30
2019-05-06T06:42:45.525Z,6.31
2019-05-06T06:43:45.500Z,6.37
2019-05-06T06:44:45.479Z,6.33
2019-05-06T06:45:45.460Z,6.40
2019-05-06T06:46:45.430Z,6.36
2019-05-06T06:47:45.405Z,6.40
2019-05-06T06:48:45.383Z,6.41
2019-05-06T06:49:45.358Z,6.43
2019-05-06T06:50:45.335Z,6.44
2019-05-06T06:51:45.317Z,6.61
2019-05-06T06:52:45.286Z,6.56
2019-05-06T06:53:45.262Z,6.64
2019-05-06T06:54:45.238Z,6.66
2019-05-06T06:55:45.214Z,6.69
2019-05-06T06:56:45.191Z,6.62
2019-05-06T06:57:45.167Z,6.76
2019-05-06T06:58:45.140Z,6.80
2019-05-06T06:59:45.118Z,6.81
2019-05-06T07:00:45.095Z,6.87
2019-05-06T07:01:45.076Z,6.87
2019-05-06T07:02:45.047Z,6.89
2019-05-06T07:03:45.022Z,6.91
2019-05-06T07:04:45.002Z,6.91
2019-05-06T07:05:44.974Z,6.94
2019-05-06T07:06:44.949Z,6.94
2019-05-06T07:07:47.487Z,7.06
2019-05-06T07:08:44.902Z,7.15
2019-05-06T07:09:44.879Z,7.20
2019-05-06T07:10:44.860Z,7.21
2019-05-06T07:11:44.835Z,7.28
2019-05-06T07:12:44.812Z,7.27
2019-05-06T07:13:44.783Z,7.16
2019-05-06T07:14:44.761Z,7.23
2019-05-06T07:15:44.743Z,7.30
2019-05-06T07:16:44.717Z,7.27
2019-05-06T07:17:44.692Z,7.40
2019-05-06T07:18:44.673Z,7.43
2019-05-06T07:19:44.641Z,7.45
2019-05-06T07:20:44.618Z,7.48
2019-05-06T07:21:44.598Z,7.63
2019-05-06T07:22:44.574Z,7.71
2019-05-06T07:23:44.556Z,7.69
2019-05-06T07:24:44.523Z,7.75
2019-05-06T07:25:44.510Z,7.85
2019-05-06T07:26:44.479Z,7.85
2019-05-06T07:27:44.462Z,7.83
2019-05-06T07:28:44.431Z,7.83
2019-05-06T07:29:48.109Z,7.82
2019-05-06T07:30:44.382Z,7.86
2019-05-06T07:31:44.361Z,7.92
2019-05-06T07:32:44.337Z,7.93
2019-05-06T07:33:44.320Z,8.00
2019-05-06T07:34:44.289Z,7.93
2019-05-06T07:35:44.266Z,8.04
2019-05-06T07:36:44.253Z,7.97
2019-05-06T07:37:44.221Z,7.92
2019-05-06T07:38:44.196Z,8.02
2019-05-06T07:39:44.174Z,7.98
2019-05-06T07:40:44.147Z,7.85
2019-05-06T07:41:46.102Z,7.92
2019-05-06T07:42:44.098Z,8.01
2019-05-06T07:43:44.081Z,8.10
2019-05-06T07:44:44.057Z,8.08
2019-05-06T07:45:44.033Z,8.11
2019-05-06T07:46:44.006Z,8.10
2019-05-06T07:47:43.989Z,8.07
2019-05-06T07:48:43.963Z,8.18
2019-05-06T07:49:43.938Z,8.19
2019-05-06T07:50:43.915Z,8.22
2019-05-06T07:51:43.891Z,8.34
2019-05-06T07:52:43.869Z,8.45
2019-05-06T07:53:43.844Z,8.48
2019-05-06T07:54:43.818Z,8.53
2019-05-06T07:55:43.796Z,8.62
2019-05-06T07:56:43.776Z,8.56
2019-05-06T07:57:43.749Z,8.61
2019-05-06T07:58:43.729Z,8.68
2019-05-06T07:59:43.703Z,8.59
2019-05-06T08:00:43.682Z,8.61
2019-05-06T08:01:44.334Z,8.70
2019-05-06T08:02:43.637Z,8.79
2019-05-06T08:03:43.614Z,8.79
2019-05-06T08:04:43.587Z,8.96
2019-05-06T08:05:54.693Z,9.04
2019-05-06T08:06:43.543Z,9.10
2019-05-06T08:07:43.518Z,9.21
2019-05-06T08:08:43.647Z,9.39
2019-05-06T08:09:43.477Z,9.31
2019-05-06T08:10:43.451Z,9.40
2019-05-06T08:11:43.429Z,9.29
2019-05-06T08:12:43.404Z,9.43
2019-05-06T08:13:43.654Z,9.36
2019-05-06T08:14:43.576Z,9.42
2019-05-06T08:15:43.338Z,9.56
2019-05-06T08:16:44.498Z,9.57
2019-05-06T08:17:43.301Z,9.68
2019-05-06T08:18:43.268Z,9.60
2019-05-06T08:19:43.245Z,9.58
2019-05-06T08:20:43.223Z,9.60
2019-05-06T08:21:43.202Z,9.54
2019-05-06T08:22:43.182Z,9.58
2019-05-06T08:23:43.165Z,9.65
2019-05-06T08:24:43.143Z,9.65
2019-05-06T08:25:43.109Z,9.71
2019-05-06T08:26:43.085Z,9.79
2019-05-06T08:27:43.063Z,9.81
2019-05-06T08:28:44.478Z,9.87
2019-05-06T08:29:43.027Z,9.84
2019-05-06T08:30:43.344Z,9.93
2019-05-06T08:31:43.171Z,9.91
2019-05-06T08:32:42.949Z,9.93
2019-05-06T08:33:43.305Z,9.69
2019-05-06T08:34:42.906Z,9.69
2019-05-06T08:35:42.887Z,9.76
2019-05-06T08:36:42.924Z,9.71
2019-05-06T08:37:42.843Z,9.66
2019-05-06T08:38:42.815Z,9.66
2019-05-06T08:39:45.838Z,9.75
2019-05-06T08:40:43.239Z,9.83
2019-05-06T08:41:42.749Z,9.87
2019-05-06T08:42:42.806Z,9.91
2019-05-06T08:43:42.704Z,9.89
2019-05-06T08:44:42.881Z,9.84
2019-05-06T08:45:42.661Z,9.68
2019-05-06T08:46:43.430Z,9.76
2019-05-06T08:47:42.817Z,9.74
2019-05-06T08:48:42.944Z,9.76
2019-05-06T08:49:42.567Z,9.51
2019-05-06T08:50:42.614Z,9.53
2019-05-06T08:51:42.813Z,9.54
2019-05-06T08:52:42.545Z,9.66
2019-05-06T08:53:42.538Z,9.84
2019-05-06T08:54:43.320Z,10.08
2019-05-06T08:55:42.442Z,10.20
2019-05-06T08:56:42.656Z,10.38
2019-05-06T08:57:42.390Z,10.38
2019-05-06T08:58:43.127Z,10.40
2019-05-06T08:59:42.488Z,10.45
2019-05-06T09:00:42.871Z,10.42
2019-05-06T09:01:42.610Z,10.36
2019-05-06T09:02:45.908Z,10.44
2019-05-06T09:03:42.529Z,10.40
2019-05-06T09:04:42.757Z,10.47
2019-05-06T09:05:42.382Z,10.68
2019-05-06T09:06:43.121Z,10.73
2019-05-06T09:07:42.990Z,10.71
2019-05-06T09:08:42.936Z,10.76
2019-05-06T09:09:42.276Z,10.66
2019-05-06T09:10:42.951Z,10.70
2019-05-06T09:11:43.192Z,10.79
2019-05-06T09:12:42.589Z,10.74
2019-05-06T09:13:42.852Z,10.82
2019-05-06T09:14:43.028Z,10.63
2019-05-06T09:15:42.855Z,10.70
2019-05-06T09:16:43.698Z,10.81
2019-05-06T09:17:42.146Z,10.85
2019-05-06T09:18:42.593Z,11.00
2019-05-06T09:19:42.651Z,11.21
2019-05-06T09:20:43.143Z,11.14
2019-05-06T09:21:45.781Z,11.07
2019-05-06T09:22:42.934Z,11.19
2019-05-06T09:23:42.504Z,11.22
2019-05-06T09:24:42.660Z,11.24
2019-05-06T09:25:42.455Z,11.39
2019-05-06T09:26:43.088Z,11.51
2019-05-06T09:27:42.136Z,11.58
2019-05-06T09:28:42.641Z,11.64
2019-05-06T09:29:42.943Z,11.58
2019-05-06T09:30:43.260Z,11.64
2019-05-06T09:31:42.756Z,11.75
2019-05-06T09:32:42.912Z,11.75
2019-05-06T09:33:42.512Z,11.75
2019-05-06T09:34:43.158Z,11.95
2019-05-06T09:35:42.252Z,11.96
2019-05-06T09:36:51.485Z,11.76
2019-05-06T09:37:43.018Z,11.55
2019-05-06T09:38:42.450Z,11.60
2019-05-06T09:39:43.035Z,11.61
2019-05-06T09:40:43.226Z,11.52
2019-05-06T09:41:46.637Z,11.55
2019-05-06T09:42:42.559Z,11.65
2019-05-06T09:43:43.367Z,11.60
2019-05-06T09:44:42.765Z,11.78
2019-05-06T09:45:42.490Z,11.76
2019-05-06T09:46:42.652Z,11.94
2019-05-06T09:47:42.448Z,12.02
2019-05-06T09:48:42.476Z,12.02
2019-05-06T09:49:42.534Z,12.12
2019-05-06T09:50:45.461Z,12.13
2019-05-06T09:51:42.428Z,12.09
2019-05-06T09:52:42.672Z,12.04
2019-05-06T09:53:43.258Z,12.14
2019-05-06T09:54:42.792Z,12.01
2019-05-06T09:55:42.993Z,12.05
2019-05-06T09:56:42.753Z,12.12
2019-05-06T09:57:42.645Z,12.13
2019-05-06T09:58:42.841Z,11.99
2019-05-06T09:59:42.170Z,11.98
2019-05-06T10:00:42.905Z,11.88
2019-05-06T10:01:43.568Z,11.85
2019-05-06T10:02:42.970Z,12.01
2019-05-06T10:03:42.679Z,12.09
2019-05-06T10:04:42.804Z,11.99
2019-05-06T10:05:42.525Z,12.10
2019-05-06T10:06:55.456Z,12.10
2019-05-06T10:07:40.880Z,12.07
2019-05-06T10:08:40.857Z,11.95
2019-05-06T10:09:43.228Z,11.85
2019-05-06T10:10:55.353Z,11.75
2019-05-06T10:11:42.335Z,11.67
2019-05-06T10:12:42.031Z,11.80
2019-05-06T10:13:42.944Z,11.58
2019-05-06T10:14:42.998Z,11.69
2019-05-06T10:15:42.687Z,11.94
2019-05-06T10:16:43.029Z,12.09
2019-05-06T10:17:42.759Z,12.14
2019-05-06T10:18:40.645Z,12.28
2019-05-06T10:19:42.739Z,12.41
2019-05-06T10:20:42.699Z,12.50
2019-05-06T10:21:42.658Z,12.54
2019-05-06T10:22:42.909Z,12.67
2019-05-06T10:23:42.292Z,12.68
2019-05-06T10:24:42.494Z,12.74
2019-05-06T10:25:43.357Z,12.71
2019-05-06T10:26:43.028Z,12.65
2019-05-06T10:27:42.225Z,12.72
2019-05-06T10:28:40.442Z,12.77
2019-05-06T10:29:40.412Z,12.79
2019-05-06T10:30:40.392Z,12.75
2019-05-06T10:31:40.370Z,12.85
2019-05-06T10:32:42.605Z,12.78
2019-05-06T10:33:42.415Z,12.72
2019-05-06T10:34:40.308Z,12.49
2019-05-06T10:35:42.694Z,12.21
2019-05-06T10:36:42.590Z,12.17
2019-05-06T10:37:42.239Z,12.10
2019-05-06T10:38:41.906Z,12.12
2019-05-06T10:39:40.209Z,12.17
2019-05-06T10:40:56.258Z,12.13
2019-05-06T10:41:42.065Z,12.05
2019-05-06T10:42:40.140Z,12.17
2019-05-06T10:43:40.121Z,12.20
2019-05-06T10:44:42.620Z,12.38
2019-05-06T10:45:40.079Z,12.27
2019-05-06T10:46:40.057Z,12.23
2019-05-06T10:47:42.203Z,12.05
2019-05-06T10:48:42.261Z,12.02
2019-05-06T10:49:41.926Z,11.94
2019-05-06T10:50:39.980Z,11.88
2019-05-06T10:51:39.953Z,11.80
2019-05-06T10:52:39.934Z,11.58
2019-05-06T10:53:42.316Z,11.54
2019-05-06T10:54:42.018Z,11.46
2019-05-06T10:55:39.866Z,11.42
2019-05-06T10:56:50.716Z,11.61
2019-05-06T10:57:40.449Z,11.62
2019-05-06T10:58:39.803Z,11.61
2019-05-06T10:59:39.792Z,11.69
2019-05-06T11:00:39.762Z,11.86
2019-05-06T11:01:39.742Z,11.86
2019-05-06T11:02:39.720Z,12.05
2019-05-06T11:03:41.526Z,12.21
2019-05-06T11:04:39.677Z,12.38
2019-05-06T11:05:39.659Z,12.31
2019-05-06T11:06:39.634Z,12.27
2019-05-06T11:07:39.615Z,12.17
2019-05-06T11:08:41.917Z,12.27
2019-05-06T11:09:39.572Z,12.23
2019-05-06T11:10:41.386Z,12.14
2019-05-06T11:11:39.530Z,12.16
2019-05-06T11:12:39.506Z,12.09
2019-05-06T11:13:39.493Z,12.05
2019-05-06T11:14:39.463Z,12.09
2019-05-06T11:15:39.443Z,12.04
2019-05-06T11:16:39.422Z,12.07
2019-05-06T11:17:39.402Z,12.02
2019-05-06T11:18:39.382Z,11.79
2019-05-06T11:19:39.360Z,11.79
2019-05-06T11:20:39.337Z,11.75
2019-05-06T11:21:39.319Z,11.70
2019-05-06T11:22:39.299Z,11.60
2019-05-06T11:23:39.276Z,11.64
2019-05-06T11:24:39.250Z,11.58
2019-05-06T11:25:39.227Z,11.62
2019-05-06T11:26:39.218Z,11.51
2019-05-06T11:27:41.835Z,11.42
2019-05-06T11:28:39.166Z,11.39
2019-05-06T11:29:39.142Z,11.43
2019-05-06T11:30:39.121Z,11.46
2019-05-06T11:31:39.106Z,11.42
2019-05-06T11:32:41.241Z,11.39
2019-05-06T11:33:39.065Z,11.47
2019-05-06T11:34:39.037Z,11.42
2019-05-06T11:35:39.018Z,11.55
2019-05-06T11:36:38.991Z,11.61
2019-05-06T11:37:46.883Z,11.75
2019-05-06T11:38:38.950Z,11.72
2019-05-06T11:39:38.927Z,11.85
2019-05-06T11:40:38.915Z,11.85
2019-05-06T11:41:38.887Z,11.79
2019-05-06T11:42:38.863Z,11.90
2019-05-06T11:43:38.843Z,12.04
2019-05-06T11:44:38.821Z,11.88
2019-05-06T11:45:38.797Z,11.94
2019-05-06T11:46:38.784Z,11.90
2019-05-06T11:47:38.755Z,11.95
2019-05-06T11:48:38.735Z,11.96
2019-05-06T11:49:38.719Z,11.99
2019-05-06T11:50:38.690Z,12.01
2019-05-06T11:51:38.669Z,11.94
2019-05-06T11:52:38.669Z,11.95
2019-05-06T11:53:38.629Z,12.19
2019-05-06T11:54:38.604Z,12.38
2019-05-06T11:55:39.064Z,12.52
2019-05-06T11:56:48.777Z,12.53
2019-05-06T11:57:38.542Z,12.54
2019-05-06T11:58:38.747Z,12.34
2019-05-06T11:59:38.499Z,12.53
2019-05-06T12:00:38.477Z,12.37
2019-05-06T12:01:38.455Z,12.27
2019-05-06T12:02:41.401Z,12.21
2019-05-06T12:03:38.420Z,12.10
2019-05-06T12:04:38.395Z,11.98
2019-05-06T12:05:38.376Z,11.88
2019-05-06T12:06:38.350Z,11.91
2019-05-06T12:07:38.338Z,11.96
2019-05-06T12:08:38.313Z,11.78
2019-05-06T12:09:38.294Z,11.58
2019-05-06T12:10:38.268Z,11.55
2019-05-06T12:11:38.243Z,11.58
2019-05-06T12:12:38.221Z,11.52
2019-05-06T12:13:38.349Z,11.61
2019-05-06T12:14:38.179Z,11.60
2019-05-06T12:15:38.164Z,11.83
2019-05-06T12:16:38.136Z,11.80
2019-05-06T12:17:38.121Z,12.01
2019-05-06T12:18:38.093Z,11.96
2019-05-06T12:19:38.077Z,12.12
2019-05-06T12:20:38.051Z,12.20
2019-05-06T12:21:38.028Z,12.14
2019-05-06T12:22:38.009Z,12.12
2019-05-06T12:23:37.985Z,12.09
2019-05-06T12:24:37.965Z,12.14
2019-05-06T12:25:37.942Z,12.04
2019-05-06T12:26:37.922Z,12.02
2019-05-06T12:27:37.901Z,11.85
2019-05-06T12:28:37.884Z,11.86
2019-05-06T12:29:38.462Z,11.90
2019-05-06T12:30:37.835Z,11.95
2019-05-06T12:31:37.813Z,11.98
2019-05-06T12:32:37.795Z,12.04
2019-05-06T12:33:37.773Z,12.09
2019-05-06T12:34:37.759Z,12.10
2019-05-06T12:35:37.741Z,12.10
2019-05-06T12:36:37.716Z,12.17
2019-05-06T12:37:37.684Z,12.05
2019-05-06T12:38:37.666Z,12.04
2019-05-06T12:39:37.644Z,11.82
2019-05-06T12:40:37.631Z,11.75
2019-05-06T12:41:37.599Z,11.78
2019-05-06T12:42:37.581Z,11.82
2019-05-06T12:43:37.560Z,11.99
2019-05-06T12:44:37.538Z,12.04
2019-05-06T12:45:37.516Z,12.04
2019-05-06T12:46:37.508Z,12.04
2019-05-06T12:47:37.483Z,12.07
2019-05-06T12:48:37.466Z,12.16
2019-05-06T12:49:37.436Z,11.98
2019-05-06T12:50:37.408Z,12.04
2019-05-06T12:51:37.393Z,12.02
2019-05-06T12:52:37.377Z,12.10
2019-05-06T12:53:37.354Z,12.16
2019-05-06T12:54:37.346Z,12.28
2019-05-06T12:55:37.303Z,12.50
2019-05-06T12:56:37.289Z,12.59
2019-05-06T12:57:37.261Z,12.72
2019-05-06T12:58:37.263Z,12.72
2019-05-06T12:59:37.222Z,12.77
2019-05-06T13:00:37.235Z,12.70
2019-05-06T13:01:37.189Z,12.68
2019-05-06T13:02:37.219Z,12.49
2019-05-06T13:03:37.137Z,12.53
2019-05-06T13:04:51.652Z,12.49
2019-05-06T13:05:37.101Z,12.54
2019-05-06T13:06:37.090Z,12.53
2019-05-06T13:07:37.052Z,12.42
2019-05-06T13:08:53.823Z,12.42
2019-05-06T13:09:37.006Z,12.52